createdAt,value
2018-09-18T00:00:20.015Z,21.28
2018-09-18T00:01:20.017Z,21.27
2018-09-18T00:02:20.015Z,21.26
2018-09-18T00:03:20.012Z,21.30
2018-09-18T00:04:20.010Z,21.27
2018-09-18T00:05:20.004Z,21.30
2018-09-18T00:06:20.007Z,21.24
2018-09-18T00:07:20.004Z,21.21
2018-09-18T00:08:20.004Z,21.16
2018-09-18T00:09:19.996Z,21.19
2018-09-18T00:10:19.994Z,21.15
2018-09-18T00:11:19.993Z,21.15
2018-09-18T00:12:19.991Z,21.05
2018-09-18T00:13:19.992Z,21.09
2018-09-18T00:14:19.989Z,21.03
2018-09-18T00:15:19.988Z,21.05
2018-09-18T00:16:19.987Z,21.09
2018-09-18T00:17:19.980Z,21.03
2018-09-18T00:18:19.977Z,21.19
2018-09-18T00:19:19.976Z,21.22
2018-09-18T00:20:19.977Z,21.18
2018-09-18T00:21:19.977Z,21.15
2018-09-18T00:22:19.975Z,21.27
2018-09-18T00:23:19.970Z,21.21
2018-09-18T00:24:19.966Z,21.22
2018-09-18T00:25:19.968Z,21.19
2018-09-18T00:26:19.968Z,21.18
2018-09-18T00:27:19.964Z,21.16
2018-09-18T00:28:19.961Z,21.21
2018-09-18T00:29:19.955Z,21.18
2018-09-18T00:30:19.954Z,21.18
2018-09-18T00:31:19.952Z,21.05
2018-09-18T00:32:19.952Z,21.05
2018-09-18T00:33:19.952Z,21.06
2018-09-18T00:34:19.956Z,21.11
2018-09-18T00:35:19.947Z,21.11
2018-09-18T00:36:19.947Z,21.08
2018-09-18T00:37:19.940Z,21.05
2018-09-18T00:38:19.936Z,21.06
2018-09-18T00:39:19.941Z,21.15
2018-09-18T00:40:19.939Z,21.15
2018-09-18T00:41:19.931Z,21.21
2018-09-18T00:42:19.930Z,21.12
2018-09-18T00:43:19.927Z,21.16
2018-09-18T00:44:19.925Z,21.15
2018-09-18T00:45:19.927Z,21.15
2018-09-18T00:46:19.928Z,21.15
2018-09-18T00:47:19.924Z,21.19
2018-09-18T00:48:19.921Z,21.13
2018-09-18T00:49:19.913Z,21.13
2018-09-18T00:50:19.912Z,21.16
2018-09-18T00:51:19.911Z,21.18
2018-09-18T00:52:19.910Z,21.19
2018-09-18T00:53:19.911Z,21.21
2018-09-18T00:54:19.959Z,21.18
2018-09-18T00:55:19.905Z,21.21
2018-09-18T00:56:19.900Z,21.28
2018-09-18T00:57:19.908Z,21.21
2018-09-18T00:58:19.901Z,21.28
2018-09-18T00:59:19.898Z,21.24
2018-09-18T01:00:19.896Z,21.30
2018-09-18T01:01:19.890Z,21.24
2018-09-18T01:02:19.887Z,21.30
2018-09-18T01:03:19.885Z,21.27
2018-09-18T01:04:19.884Z,21.27
2018-09-18T01:05:19.885Z,21.26
2018-09-18T01:06:19.883Z,21.22
2018-09-18T01:07:19.882Z,21.24
2018-09-18T01:08:19.880Z,21.22
2018-09-18T01:09:19.876Z,21.26
2018-09-18T01:10:19.872Z,21.26
2018-09-18T01:11:19.877Z,21.30
2018-09-18T01:12:19.872Z,21.30
2018-09-18T01:13:19.865Z,21.36
2018-09-18T01:14:19.861Z,21.36
2018-09-18T01:15:19.863Z,21.33
2018-09-18T01:16:19.858Z,21.34
2018-09-18T01:17:19.860Z,21.34
2018-09-18T01:18:19.857Z,21.31
2018-09-18T01:19:19.861Z,21.31
2018-09-18T01:20:19.855Z,21.31
2018-09-18T01:21:19.849Z,21.27
2018-09-18T01:22:19.845Z,21.37
2018-09-18T01:23:19.845Z,21.27
2018-09-18T01:24:19.846Z,21.33
2018-09-18T01:25:19.847Z,21.27
2018-09-18T01:26:19.842Z,21.27
2018-09-18T01:27:19.836Z,21.26
2018-09-18T01:28:19.834Z,21.19
2018-09-18T01:29:19.836Z,21.27
2018-09-18T01:30:19.833Z,21.21
2018-09-18T01:31:19.832Z,21.15
2018-09-18T01:32:19.831Z,21.18
2018-09-18T01:33:19.823Z,21.15
2018-09-18T01:34:19.820Z,21.15
2018-09-18T01:35:19.820Z,21.19
2018-09-18T01:36:19.818Z,21.18
2018-09-18T01:37:19.820Z,21.18
2018-09-18T01:38:19.823Z,21.16
2018-09-18T01:39:19.815Z,21.18
2018-09-18T01:40:19.813Z,21.11
2018-09-18T01:41:19.807Z,21.13
2018-09-18T01:42:19.805Z,21.21
2018-09-18T01:43:19.808Z,21.09
2018-09-18T01:44:19.805Z,21.13
2018-09-18T01:45:19.799Z,21.13
2018-09-18T01:46:19.796Z,21.05
2018-09-18T01:47:19.795Z,21.09
2018-09-18T01:48:19.793Z,21.06
2018-09-18T01:49:19.807Z,21.08
2018-09-18T01:50:19.793Z,20.97
2018-09-18T01:51:19.791Z,21.08
2018-09-18T01:52:19.789Z,21.09
2018-09-18T01:53:19.781Z,21.11
2018-09-18T01:54:19.790Z,21.01
2018-09-18T01:55:19.781Z,21.19
2018-09-18T01:56:19.778Z,21.05
2018-09-18T01:57:19.778Z,21.03
2018-09-18T01:58:19.775Z,21.08
2018-09-18T01:59:19.772Z,21.11
2018-09-18T02:00:19.768Z,21.09
2018-09-18T02:01:19.772Z,21.08
2018-09-18T02:02:19.768Z,21.01
2018-09-18T02:03:19.769Z,21.06
2018-09-18T02:04:19.764Z,21.05
2018-09-18T02:05:19.756Z,20.94
2018-09-18T02:06:19.756Z,20.90
2018-09-18T02:07:19.754Z,21.06
2018-09-18T02:08:19.751Z,21.12
2018-09-18T02:09:19.753Z,21.11
2018-09-18T02:10:19.751Z,21.12
2018-09-18T02:11:19.748Z,21.15
2018-09-18T02:12:19.748Z,21.15
2018-09-18T02:13:19.744Z,21.13
2018-09-18T02:14:19.738Z,21.12
2018-09-18T02:15:19.741Z,21.08
2018-09-18T02:16:19.738Z,21.11
2018-09-18T02:17:19.734Z,21.12
2018-09-18T02:18:19.730Z,21.08
2018-09-18T02:19:19.727Z,21.08
2018-09-18T02:20:19.726Z,21.05
2018-09-18T02:21:19.729Z,21.15
2018-09-18T02:22:19.727Z,21.15
2018-09-18T02:23:19.723Z,21.16
2018-09-18T02:24:19.721Z,21.15
2018-09-18T02:25:19.714Z,21.21
2018-09-18T02:26:19.712Z,21.27
2018-09-18T02:27:19.710Z,21.33
2018-09-18T02:28:19.709Z,21.19
2018-09-18T02:29:19.711Z,21.33
2018-09-18T02:30:19.709Z,21.37
2018-09-18T02:31:19.702Z,21.33
2018-09-18T02:32:19.700Z,21.30
2018-09-18T02:33:19.703Z,21.33
2018-09-18T02:34:19.699Z,21.33
2018-09-18T02:35:19.697Z,21.21
2018-09-18T02:36:19.696Z,21.21
2018-09-18T02:37:19.688Z,21.30
2018-09-18T02:38:19.687Z,21.30
2018-09-18T02:39:19.685Z,21.22
2018-09-18T02:40:19.683Z,21.30
2018-09-18T02:41:19.685Z,21.27
2018-09-18T02:42:19.683Z,21.26
2018-09-18T02:43:19.681Z,21.18
2018-09-18T02:44:19.680Z,21.21
2018-09-18T02:45:19.674Z,21.22
2018-09-18T02:46:19.669Z,21.26
2018-09-18T02:47:19.718Z,21.21
2018-09-18T02:48:19.671Z,21.12
2018-09-18T02:49:19.663Z,21.16
2018-09-18T02:50:19.662Z,21.19
2018-09-18T02:51:19.659Z,21.22
2018-09-18T02:52:19.657Z,21.26
2018-09-18T02:53:19.659Z,21.18
2018-09-18T02:54:19.658Z,21.24
2018-09-18T02:55:19.655Z,21.28
2018-09-18T02:56:19.654Z,21.21
2018-09-18T02:57:19.646Z,21.27
2018-09-18T02:58:19.644Z,21.31
2018-09-18T02:59:19.643Z,21.18
2018-09-18T03:00:19.641Z,21.21
2018-09-18T03:01:19.643Z,21.22
2018-09-18T03:02:19.642Z,21.12
2018-09-18T03:03:19.635Z,21.15
2018-09-18T03:04:19.633Z,21.06
2018-09-18T03:05:19.635Z,21.19
2018-09-18T03:06:19.634Z,21.19
2018-09-18T03:07:19.635Z,21.09
2018-09-18T03:08:19.638Z,21.06
2018-09-18T03:09:19.625Z,21.09
2018-09-18T03:10:19.620Z,21.05
2018-09-18T03:11:19.672Z,21.08
2018-09-18T03:12:19.615Z,21.05
2018-09-18T03:13:19.618Z,21.11
2018-09-18T03:14:19.617Z,21.03
2018-09-18T03:15:19.616Z,21.00
2018-09-18T03:16:19.612Z,20.91
2018-09-18T03:17:19.606Z,20.96
2018-09-18T03:18:19.607Z,20.96
2018-09-18T03:19:19.607Z,20.94
2018-09-18T03:20:19.604Z,21.00
2018-09-18T03:21:19.599Z,20.94
2018-09-18T03:22:19.595Z,21.01
2018-09-18T03:23:19.594Z,21.08
2018-09-18T03:24:19.590Z,21.05
2018-09-18T03:25:19.592Z,21.03
2018-09-18T03:26:19.590Z,21.06
2018-09-18T03:27:19.592Z,20.98
2018-09-18T03:28:19.584Z,20.91
2018-09-18T03:29:19.587Z,20.97
2018-09-18T03:30:19.582Z,20.91
2018-09-18T03:31:19.579Z,20.91
2018-09-18T03:32:19.583Z,21.00
2018-09-18T03:33:19.570Z,21.09
2018-09-18T03:34:19.568Z,21.06
2018-09-18T03:35:19.574Z,21.09
2018-09-18T03:36:19.571Z,21.06
2018-09-18T03:37:19.561Z,21.12
2018-09-18T03:38:19.562Z,21.08
2018-09-18T03:39:19.558Z,21.11
2018-09-18T03:40:19.556Z,21.11
2018-09-18T03:41:19.559Z,21.05
2018-09-18T03:42:19.557Z,21.03
2018-09-18T03:43:19.556Z,21.08
2018-09-18T03:44:19.553Z,21.11
2018-09-18T03:45:19.546Z,20.97
2018-09-18T03:46:19.543Z,20.93
2018-09-18T03:47:19.540Z,20.98
2018-09-18T03:48:19.540Z,20.94
2018-09-18T03:49:19.540Z,20.91
2018-09-18T03:50:19.539Z,20.90
2018-09-18T03:51:19.534Z,20.96
2018-09-18T03:52:19.530Z,20.94
2018-09-18T03:53:19.532Z,20.96
2018-09-18T03:54:19.533Z,21.08
2018-09-18T03:55:19.531Z,21.08
2018-09-18T03:56:19.527Z,21.03
2018-09-18T03:57:19.518Z,21.08
2018-09-18T03:58:19.517Z,21.08
2018-09-18T03:59:19.520Z,21.13
2018-09-18T04:00:19.513Z,21.09
2018-09-18T04:01:19.515Z,21.08
2018-09-18T04:02:19.513Z,21.06
2018-09-18T04:03:19.511Z,21.01
2018-09-18T04:04:19.508Z,20.91
2018-09-18T04:05:19.503Z,20.90
2018-09-18T04:06:19.498Z,20.97
2018-09-18T04:07:19.502Z,20.96
2018-09-18T04:08:19.500Z,20.96
2018-09-18T04:09:19.493Z,20.91
2018-09-18T04:10:19.491Z,20.90
2018-09-18T04:11:19.489Z,20.91
2018-09-18T04:12:19.488Z,20.91
2018-09-18T04:13:19.489Z,20.91
2018-09-18T04:14:19.486Z,20.87
2018-09-18T04:15:19.485Z,20.91
2018-09-18T04:16:19.483Z,20.82
2018-09-18T04:17:19.504Z,20.88
2018-09-18T04:18:19.472Z,20.85
2018-09-18T04:19:19.470Z,20.96
2018-09-18T04:20:19.469Z,20.96
2018-09-18T04:21:19.471Z,20.94
2018-09-18T04:22:19.469Z,20.90
2018-09-18T04:23:19.462Z,20.96
2018-09-18T04:24:19.461Z,20.83
2018-09-18T04:25:19.461Z,20.91
2018-09-18T04:26:19.460Z,20.91
2018-09-18T04:27:19.458Z,20.97
2018-09-18T04:28:19.457Z,20.93
2018-09-18T04:29:19.451Z,21.06
2018-09-18T04:30:19.447Z,21.03
2018-09-18T04:31:19.444Z,21.05
2018-09-18T04:32:19.442Z,21.01
2018-09-18T04:33:19.443Z,21.00
2018-09-18T04:34:19.454Z,21.06
2018-09-18T04:35:19.443Z,20.98
2018-09-18T04:36:19.439Z,20.97
2018-09-18T04:37:19.431Z,20.91
2018-09-18T04:38:19.429Z,20.94
2018-09-18T04:39:19.432Z,21.03
2018-09-18T04:40:19.431Z,20.98
2018-09-18T04:41:19.421Z,20.96
2018-09-18T04:42:19.420Z,20.94
2018-09-18T04:43:19.418Z,21.06
2018-09-18T04:44:19.417Z,21.03
2018-09-18T04:45:19.417Z,21.06
2018-09-18T04:46:19.416Z,20.98
2018-09-18T04:47:19.414Z,20.96
2018-09-18T04:48:19.411Z,20.91
2018-09-18T04:49:19.409Z,21.06
2018-09-18T04:50:19.402Z,21.03
2018-09-18T04:51:19.400Z,21.06
2018-09-18T04:52:19.398Z,21.08
2018-09-18T04:53:19.399Z,21.19
2018-09-18T04:54:19.399Z,21.03
2018-09-18T04:55:19.392Z,21.05
2018-09-18T04:56:19.389Z,21.11
2018-09-18T04:57:19.391Z,21.06
2018-09-18T04:58:19.391Z,21.05
2018-09-18T04:59:19.387Z,21.09
2018-09-18T05:00:19.385Z,21.05
2018-09-18T05:01:19.377Z,21.01
2018-09-18T05:02:19.375Z,21.08
2018-09-18T05:03:19.373Z,20.96
2018-09-18T05:04:19.371Z,21.11
2018-09-18T05:05:19.372Z,21.11
2018-09-18T05:06:19.370Z,21.09
2018-09-18T05:07:19.372Z,21.13
2018-09-18T05:08:19.367Z,21.06
2018-09-18T05:09:19.416Z,21.11
2018-09-18T05:10:19.358Z,21.12
2018-09-18T05:11:19.360Z,21.13
2018-09-18T05:12:19.358Z,21.15
2018-09-18T05:13:19.350Z,21.18
2018-09-18T05:14:19.349Z,21.05
2018-09-18T05:15:19.345Z,21.06
2018-09-18T05:16:19.343Z,21.05
2018-09-18T05:17:19.345Z,21.05
2018-09-18T05:18:19.342Z,21.05
2018-09-18T05:19:19.340Z,21.01
2018-09-18T05:20:19.338Z,21.05
2018-09-18T05:21:19.332Z,21.06
2018-09-18T05:22:19.329Z,21.06
2018-09-18T05:23:19.328Z,21.03
2018-09-18T05:24:19.326Z,21.16
2018-09-18T05:25:19.328Z,21.16
2018-09-18T05:26:19.325Z,21.13
2018-09-18T05:27:19.319Z,21.09
2018-09-18T05:28:19.317Z,21.05
2018-09-18T05:29:19.319Z,21.18
2018-09-18T05:30:19.316Z,21.13
2018-09-18T05:31:19.315Z,21.24
2018-09-18T05:32:19.313Z,21.06
2018-09-18T05:33:19.305Z,21.01
2018-09-18T05:34:19.305Z,21.15
2018-09-18T05:35:19.301Z,21.15
2018-09-18T05:36:19.300Z,21.15
2018-09-18T05:37:19.302Z,21.21
2018-09-18T05:38:19.300Z,21.30
2018-09-18T05:39:19.298Z,21.61
2018-09-18T05:40:19.294Z,21.89
2018-09-18T05:41:19.287Z,22.15
2018-09-18T05:42:19.287Z,22.57
2018-09-18T05:43:19.290Z,22.79
2018-09-18T05:44:19.287Z,23.14
2018-09-18T05:45:19.280Z,22.99
2018-09-18T05:46:19.280Z,23.18
2018-09-18T05:47:19.277Z,23.44
2018-09-18T05:48:19.276Z,23.39
2018-09-18T05:49:19.279Z,23.68
2018-09-18T05:50:19.277Z,23.84
2018-09-18T05:51:19.280Z,23.90
2018-09-18T05:52:19.277Z,23.97
2018-09-18T05:53:19.270Z,24.16
2018-09-18T05:54:19.270Z,23.94
2018-09-18T05:55:19.269Z,24.31
2018-09-18T05:56:19.271Z,24.36
2018-09-18T05:57:19.275Z,24.23
2018-09-18T05:58:19.273Z,24.29
2018-09-18T05:59:19.269Z,24.30
2018-09-18T06:00:19.270Z,24.27
2018-09-18T06:01:19.275Z,24.31
2018-09-18T06:02:19.310Z,24.87
2018-09-18T06:03:19.277Z,24.98
2018-09-18T06:04:19.280Z,24.71
2018-09-18T06:05:19.274Z,24.49
2018-09-18T06:06:19.276Z,24.61
2018-09-18T06:07:19.277Z,25.01
2018-09-18T06:08:19.279Z,24.74
2018-09-18T06:09:19.284Z,24.90
2018-09-18T06:10:19.286Z,24.82
2018-09-18T06:11:19.289Z,25.17
2018-09-18T06:12:19.292Z,25.02
2018-09-18T06:13:19.287Z,25.17
2018-09-18T06:14:19.290Z,25.20
2018-09-18T06:15:19.295Z,25.34
2018-09-18T06:16:19.298Z,25.48
2018-09-18T06:17:19.296Z,25.67
2018-09-18T06:18:19.299Z,25.69
2018-09-18T06:19:19.344Z,25.74
2018-09-18T06:20:19.304Z,25.45
2018-09-18T06:21:19.314Z,25.14
2018-09-18T06:22:19.315Z,25.56
2018-09-18T06:23:19.318Z,25.59
2018-09-18T06:24:19.322Z,26.12
2018-09-18T06:25:19.319Z,26.17
2018-09-18T06:26:19.445Z,26.09
2018-09-18T06:27:19.325Z,26.11
2018-09-18T06:28:19.329Z,26.54
2018-09-18T06:29:19.335Z,26.39
2018-09-18T06:30:19.341Z,26.44
2018-09-18T06:31:19.340Z,26.75
2018-09-18T06:32:19.343Z,26.76
2018-09-18T06:33:19.350Z,26.81
2018-09-18T06:34:19.355Z,26.54
2018-09-18T06:35:19.360Z,26.83
2018-09-18T06:36:19.364Z,26.78
2018-09-18T06:37:19.364Z,27.09
2018-09-18T06:38:19.367Z,26.44
2018-09-18T06:39:19.373Z,26.53
2018-09-18T06:40:19.378Z,26.41
2018-09-18T06:41:19.386Z,27.20
2018-09-18T06:42:19.441Z,27.45
2018-09-18T06:43:19.396Z,27.49
2018-09-18T06:44:19.401Z,27.25
2018-09-18T06:45:19.402Z,27.01
2018-09-18T06:46:19.406Z,27.33
2018-09-18T06:47:19.415Z,27.02
2018-09-18T06:48:19.421Z,26.84
2018-09-18T06:49:19.424Z,26.54
2018-09-18T06:50:19.428Z,26.68
2018-09-18T06:51:19.430Z,26.83
2018-09-18T06:52:19.435Z,26.71
2018-09-18T06:53:19.445Z,27.15
2018-09-18T06:54:19.466Z,27.63
2018-09-18T06:55:19.457Z,27.46
2018-09-18T06:56:19.461Z,27.42
2018-09-18T06:57:19.463Z,27.83
2018-09-18T06:58:19.467Z,27.98
2018-09-18T06:59:19.474Z,28.18
2018-09-18T07:00:19.480Z,28.62
2018-09-18T07:01:19.493Z,27.96
2018-09-18T07:02:19.496Z,27.65
2018-09-18T07:03:19.497Z,27.93
2018-09-18T07:04:19.504Z,27.96
2018-09-18T07:05:19.514Z,28.14
2018-09-18T07:06:19.524Z,28.45
2018-09-18T07:07:19.525Z,28.42
2018-09-18T07:08:19.532Z,28.40
2018-09-18T07:09:19.533Z,28.80
2018-09-18T07:10:19.540Z,28.18
2018-09-18T07:11:19.553Z,28.50
2018-09-18T07:12:19.559Z,28.73
2018-09-18T07:13:19.565Z,28.82
2018-09-18T07:14:19.618Z,28.20
2018-09-18T07:15:19.579Z,28.58
2018-09-18T07:16:19.586Z,28.43
2018-09-18T07:17:19.586Z,28.74
2018-09-18T07:18:19.594Z,28.01
2018-09-18T07:19:19.607Z,28.20
2018-09-18T07:20:19.614Z,28.50
2018-09-18T07:21:19.619Z,28.58
2018-09-18T07:22:19.624Z,29.14
2018-09-18T07:23:19.631Z,28.97
2018-09-18T07:24:19.638Z,29.44
2018-09-18T07:25:19.653Z,29.12
2018-09-18T07:26:19.658Z,29.02
2018-09-18T07:27:19.665Z,29.12
2018-09-18T07:28:19.673Z,29.08
2018-09-18T07:29:19.708Z,28.45
2018-09-18T07:30:19.684Z,28.46
2018-09-18T07:31:19.692Z,28.14
2018-09-18T07:32:19.701Z,28.39
2018-09-18T07:33:19.712Z,28.80
2018-09-18T07:34:19.721Z,29.51
2018-09-18T07:35:19.725Z,29.33
2018-09-18T07:36:19.735Z,28.98
2018-09-18T07:37:19.745Z,28.95
2018-09-18T07:38:19.753Z,29.45
2018-09-18T07:39:19.761Z,29.36
2018-09-18T07:40:19.770Z,30.11
2018-09-18T07:41:19.772Z,30.06
2018-09-18T07:42:19.783Z,29.45
2018-09-18T07:43:19.790Z,29.69
2018-09-18T07:44:19.800Z,29.70
2018-09-18T07:45:19.812Z,29.36
2018-09-18T07:46:19.820Z,29.30
2018-09-18T07:47:19.881Z,29.45
2018-09-18T07:48:19.840Z,29.86
2018-09-18T07:49:19.844Z,30.25
2018-09-18T07:50:19.853Z,30.32
2018-09-18T07:51:19.867Z,29.71
2018-09-18T07:52:19.931Z,29.82
2018-09-18T07:53:19.881Z,30.29
2018-09-18T07:54:19.889Z,30.21
2018-09-18T07:55:19.902Z,30.63
2018-09-18T07:56:19.911Z,30.97
2018-09-18T07:57:19.924Z,31.04
2018-09-18T07:58:19.931Z,31.12
2018-09-18T07:59:19.943Z,30.96
2018-09-18T08:00:19.953Z,31.28
2018-09-18T08:01:20.057Z,31.07
2018-09-18T08:02:19.968Z,30.88
2018-09-18T08:03:19.986Z,31.07
2018-09-18T08:04:19.988Z,31.52
2018-09-18T08:05:20.002Z,31.69
2018-09-18T08:06:20.013Z,31.59
2018-09-18T08:07:20.018Z,31.12
2018-09-18T08:08:20.028Z,31.71
2018-09-18T08:09:20.042Z,31.41
2018-09-18T08:10:20.057Z,32.21
2018-09-18T08:11:20.063Z,32.21
2018-09-18T08:12:20.072Z,31.74
2018-09-18T08:13:20.078Z,32.19
2018-09-18T08:14:20.090Z,31.97
2018-09-18T08:15:20.099Z,31.68
2018-09-18T08:16:20.111Z,32.19
2018-09-18T08:17:20.125Z,31.91
2018-09-18T08:18:20.135Z,31.28
2018-09-18T08:19:20.243Z,30.23
2018-09-18T08:20:20.158Z,30.45
2018-09-18T08:21:20.163Z,31.60
2018-09-18T08:22:20.173Z,32.22
2018-09-18T08:23:20.190Z,32.22
2018-09-18T08:24:20.200Z,32.05
2018-09-18T08:25:20.324Z,33.11
2018-09-18T08:26:20.219Z,33.37
2018-09-18T08:27:20.227Z,33.89
2018-09-18T08:28:20.239Z,32.56
2018-09-18T08:29:20.255Z,32.13
2018-09-18T08:30:20.268Z,32.84
2018-09-18T08:31:20.278Z,33.43
2018-09-18T08:32:20.288Z,32.35
2018-09-18T08:33:20.295Z,32.77
2018-09-18T08:34:20.310Z,32.56
2018-09-18T08:35:20.318Z,32.31
2018-09-18T08:36:20.331Z,32.73
2018-09-18T08:37:20.347Z,33.00
2018-09-18T08:38:20.359Z,32.98
2018-09-18T08:39:20.371Z,33.31
2018-09-18T08:40:20.379Z,32.85
2018-09-18T08:41:20.414Z,33.49
2018-09-18T08:42:20.418Z,32.73
2018-09-18T08:43:20.419Z,33.05
2018-09-18T08:44:20.431Z,33.71
2018-09-18T08:45:20.438Z,33.37
2018-09-18T08:46:20.465Z,33.62
2018-09-18T08:47:20.464Z,34.16
2018-09-18T08:48:20.476Z,33.78
2018-09-18T08:49:20.494Z,33.70
2018-09-18T08:50:20.509Z,33.96
2018-09-18T08:51:20.518Z,34.50
2018-09-18T08:52:20.555Z,35.00
2018-09-18T08:53:20.565Z,35.65
2018-09-18T08:54:20.568Z,36.13
2018-09-18T08:55:20.569Z,36.44
2018-09-18T08:56:20.606Z,35.54
2018-09-18T08:57:20.611Z,35.44
2018-09-18T08:58:20.604Z,35.69
2018-09-18T08:59:20.618Z,36.06
2018-09-18T09:00:20.631Z,36.23
2018-09-18T09:01:20.648Z,35.83
2018-09-18T09:02:20.662Z,35.25
2018-09-18T09:03:20.676Z,35.87
2018-09-18T09:04:20.693Z,35.85
2018-09-18T09:05:20.765Z,36.44
2018-09-18T09:06:20.791Z,37.20
2018-09-18T09:07:20.752Z,37.20
2018-09-18T09:08:20.804Z,37.85
2018-09-18T09:09:20.869Z,38.18
2018-09-18T09:10:20.844Z,37.82
2018-09-18T09:11:20.805Z,37.91
2018-09-18T09:12:20.797Z,37.24
2018-09-18T09:13:20.825Z,37.72
2018-09-18T09:14:20.901Z,36.96
2018-09-18T09:15:20.861Z,36.41
2018-09-18T09:16:20.861Z,36.13
2018-09-18T09:17:20.875Z,35.29
2018-09-18T09:18:20.994Z,35.61
2018-09-18T09:19:20.923Z,35.81
2018-09-18T09:20:20.917Z,35.83
2018-09-18T09:21:21.035Z,36.19
2018-09-18T09:22:21.045Z,36.67
2018-09-18T09:23:20.968Z,37.21
2018-09-18T09:24:21.007Z,37.25
2018-09-18T09:25:20.990Z,36.25
2018-09-18T09:26:21.044Z,36.21
2018-09-18T09:27:21.056Z,36.28
2018-09-18T09:28:21.042Z,35.85
2018-09-18T09:29:21.052Z,35.65
2018-09-18T09:30:21.075Z,35.31
2018-09-18T09:31:21.087Z,35.89
2018-09-18T09:32:21.137Z,35.58
2018-09-18T09:33:21.137Z,35.83
2018-09-18T09:34:21.159Z,36.56
2018-09-18T09:35:21.173Z,35.91
2018-09-18T09:36:21.165Z,37.16
2018-09-18T09:37:21.355Z,37.24
2018-09-18T09:38:21.190Z,36.74
2018-09-18T09:39:21.206Z,36.31
2018-09-18T09:40:21.222Z,35.89
2018-09-18T09:41:21.241Z,36.34
2018-09-18T09:42:21.256Z,36.89
2018-09-18T09:43:21.267Z,37.39
2018-09-18T09:44:21.284Z,37.63
2018-09-18T09:45:21.303Z,36.99
2018-09-18T09:46:21.318Z,36.71
2018-09-18T09:47:21.335Z,36.49
2018-09-18T09:48:21.351Z,36.23
2018-09-18T09:49:21.361Z,36.27
2018-09-18T09:50:21.377Z,35.95
2018-09-18T09:51:21.544Z,36.99
2018-09-18T09:52:21.410Z,37.87
2018-09-18T09:53:21.426Z,38.04
2018-09-18T09:54:21.442Z,38.19
2018-09-18T09:55:21.461Z,39.07
2018-09-18T09:56:21.475Z,39.80
2018-09-18T09:57:21.486Z,40.09
2018-09-18T09:58:21.501Z,39.88
2018-09-18T09:59:21.522Z,39.66
2018-09-18T10:00:21.540Z,38.21
2018-09-18T10:01:21.548Z,37.93
2018-09-18T10:02:21.611Z,38.06
2018-09-18T10:03:21.582Z,38.43
2018-09-18T10:04:21.597Z,37.93
2018-09-18T10:05:21.617Z,37.43
2018-09-18T10:06:21.635Z,38.30
2018-09-18T10:07:21.650Z,38.44
2018-09-18T10:08:21.667Z,38.34
2018-09-18T10:09:21.678Z,38.04
2018-09-18T10:10:21.748Z,37.16
2018-09-18T10:11:21.710Z,37.12
2018-09-18T10:12:21.728Z,37.28
2018-09-18T10:13:21.759Z,37.59
2018-09-18T10:14:21.768Z,38.19
2018-09-18T10:15:21.775Z,38.84
2018-09-18T10:16:21.792Z,38.75
2018-09-18T10:17:21.813Z,38.50
2018-09-18T10:18:21.829Z,37.96
2018-09-18T10:19:21.844Z,37.30
2018-09-18T10:20:21.860Z,36.50
2018-09-18T10:21:21.872Z,37.45
2018-09-18T10:22:21.887Z,37.09
2018-09-18T10:23:21.911Z,37.39
2018-09-18T10:24:21.927Z,37.75
2018-09-18T10:25:21.960Z,37.82
2018-09-18T10:26:22.045Z,37.66
2018-09-18T10:27:21.994Z,37.88
2018-09-18T10:28:22.010Z,38.78
2018-09-18T10:29:22.000Z,39.46
2018-09-18T10:30:22.013Z,39.94
2018-09-18T10:31:22.033Z,39.82
2018-09-18T10:32:22.050Z,39.09
2018-09-18T10:33:22.060Z,38.90
2018-09-18T10:34:22.075Z,38.55
2018-09-18T10:35:22.119Z,38.16
2018-09-18T10:36:22.128Z,38.47
2018-09-18T10:37:22.127Z,38.74
2018-09-18T10:38:22.155Z,38.92
2018-09-18T10:39:22.159Z,38.41
2018-09-18T10:40:22.176Z,38.18
2018-09-18T10:41:22.321Z,38.33
2018-09-18T10:42:22.201Z,38.60
2018-09-18T10:43:22.218Z,38.87
2018-09-18T10:44:22.262Z,38.79
2018-09-18T10:45:22.278Z,38.67
2018-09-18T10:46:22.281Z,39.27
2018-09-18T10:47:22.306Z,39.61
2018-09-18T10:48:22.315Z,39.63
2018-09-18T10:49:22.384Z,40.02
2018-09-18T10:50:22.332Z,40.15
2018-09-18T10:51:22.347Z,40.79
2018-09-18T10:52:22.408Z,41.14
2018-09-18T10:53:22.373Z,41.69
2018-09-18T10:54:22.389Z,40.38
2018-09-18T10:55:22.499Z,40.19
2018-09-18T10:56:22.423Z,39.16
2018-09-18T10:57:22.442Z,38.60
2018-09-18T10:58:22.458Z,38.72
2018-09-18T10:59:22.474Z,38.37
2018-09-18T11:00:22.512Z,38.36
2018-09-18T11:01:22.500Z,38.75
2018-09-18T11:02:22.613Z,39.07
2018-09-18T11:03:22.536Z,39.54
2018-09-18T11:04:22.571Z,40.10
2018-09-18T11:05:22.562Z,40.16
2018-09-18T11:06:22.598Z,40.24
2018-09-18T11:07:22.600Z,40.57
2018-09-18T11:08:22.635Z,41.23
2018-09-18T11:09:22.644Z,41.16
2018-09-18T11:10:22.779Z,40.64
2018-09-18T11:11:22.696Z,41.04
2018-09-18T11:12:22.694Z,39.69
2018-09-18T11:13:22.775Z,37.95
2018-09-18T11:14:22.720Z,37.78
2018-09-18T11:15:22.725Z,38.25
2018-09-18T11:16:22.762Z,38.72
2018-09-18T11:17:22.756Z,37.49
2018-09-18T11:18:22.833Z,37.43
2018-09-18T11:19:22.781Z,37.40
2018-09-18T11:20:22.798Z,37.45
2018-09-18T11:21:22.871Z,37.46
2018-09-18T11:22:22.909Z,37.43
2018-09-18T11:23:22.846Z,37.23
2018-09-18T11:24:22.905Z,36.86
2018-09-18T11:25:22.871Z,36.46
2018-09-18T11:26:22.882Z,35.25
2018-09-18T11:27:22.898Z,35.10
2018-09-18T11:28:22.925Z,34.90
2018-09-18T11:29:22.928Z,34.87
2018-09-18T11:30:22.974Z,34.75
2018-09-18T11:31:23.112Z,34.15
2018-09-18T11:32:22.965Z,34.03
2018-09-18T11:33:22.970Z,34.24
2018-09-18T11:34:22.987Z,34.37
2018-09-18T11:35:22.999Z,34.58
2018-09-18T11:36:23.013Z,34.83
2018-09-18T11:37:23.015Z,34.91
2018-09-18T11:38:23.025Z,35.15
2018-09-18T11:39:23.036Z,35.15
2018-09-18T11:40:23.045Z,35.07
2018-09-18T11:41:23.059Z,35.02
2018-09-18T11:42:23.070Z,35.02
2018-09-18T11:43:23.079Z,35.17
2018-09-18T11:44:23.087Z,35.20
2018-09-18T11:45:23.098Z,35.03
2018-09-18T11:46:23.100Z,35.20
2018-09-18T11:47:23.109Z,35.07
2018-09-18T11:48:23.118Z,35.25
2018-09-18T11:49:23.135Z,35.27
2018-09-18T11:50:23.138Z,35.12
2018-09-18T11:51:23.184Z,34.80
2018-09-18T11:52:23.151Z,34.93
2018-09-18T11:53:23.162Z,34.83
2018-09-18T11:54:23.174Z,34.86
2018-09-18T11:55:23.180Z,34.94
2018-09-18T11:56:23.188Z,34.98
2018-09-18T11:57:23.189Z,34.73
2018-09-18T11:58:23.267Z,34.83
2018-09-18T11:59:23.210Z,34.67
2018-09-18T12:00:23.219Z,34.12
2018-09-18T12:01:23.219Z,34.15
2018-09-18T12:02:23.227Z,34.28
2018-09-18T12:03:23.234Z,34.42
2018-09-18T12:04:23.241Z,34.34
2018-09-18T12:05:23.253Z,34.43
2018-09-18T12:06:23.260Z,34.03
2018-09-18T12:07:23.262Z,34.14
2018-09-18T12:08:23.269Z,34.16
2018-09-18T12:09:23.281Z,34.26
2018-09-18T12:10:23.288Z,34.23
2018-09-18T12:11:23.324Z,34.28
2018-09-18T12:12:23.303Z,34.36
2018-09-18T12:13:23.302Z,34.42
2018-09-18T12:14:23.311Z,34.58
2018-09-18T12:15:23.319Z,34.78
2018-09-18T12:16:23.325Z,34.81
2018-09-18T12:17:23.335Z,34.88
2018-09-18T12:18:23.342Z,34.90
2018-09-18T12:19:23.348Z,34.88
2018-09-18T12:20:23.355Z,34.90
2018-09-18T12:21:23.358Z,34.91
2018-09-18T12:22:23.472Z,34.61
2018-09-18T12:23:23.374Z,34.69
2018-09-18T12:24:23.381Z,34.60
2018-09-18T12:25:23.382Z,34.63
2018-09-18T12:26:23.389Z,34.76
2018-09-18T12:27:23.399Z,34.76
2018-09-18T12:28:23.407Z,34.90
2018-09-18T12:29:23.414Z,34.78
2018-09-18T12:30:23.421Z,34.72
2018-09-18T12:31:23.427Z,34.67
2018-09-18T12:32:23.434Z,34.71
2018-09-18T12:33:23.435Z,34.81
2018-09-18T12:34:23.441Z,34.71
2018-09-18T12:35:23.515Z,34.73
2018-09-18T12:36:23.454Z,34.73
2018-09-18T12:37:23.469Z,34.31
2018-09-18T12:38:23.472Z,34.34
2018-09-18T12:39:23.473Z,34.11
2018-09-18T12:40:23.479Z,33.65
2018-09-18T12:41:23.536Z,33.47
2018-09-18T12:42:23.535Z,33.56
2018-09-18T12:43:23.503Z,33.60
2018-09-18T12:44:23.513Z,33.71
2018-09-18T12:45:23.509Z,33.71
2018-09-18T12:46:23.517Z,33.72
2018-09-18T12:47:23.522Z,33.77
2018-09-18T12:48:23.529Z,33.63
2018-09-18T12:49:23.684Z,33.68
2018-09-18T12:50:23.692Z,33.68
2018-09-18T12:51:23.551Z,33.62
2018-09-18T12:52:23.557Z,33.72